Station info - map view · info · telemetry · weather · raw · status · beacons · messages · bulletins · browse · moving · my account
Callsign, ship name or locator: Clear       
It is possible to search using wildcards (*?) after a prefix. Example: OH*
APRS station E27JBQ-10 - show graphs
Map loading...
Comment: Chiangrai APRS Group
Last status: [AI-TRACKER V1]
Location: 13°44.09' N 100°30.81' E - locator OK03GR16OI - show map - static map
1.6 miles Southeast bearing 149° from Bangkok, Bangkok, Thailand [?]
5.4 miles South bearing 197° from Bang Sue, Bangkok, Thailand
7.2 miles Southwest bearing 206° from Chatuchak, Bangkok, Thailand
10.9 miles Northwest bearing 329° from Samut Prakan, Samut Prakan, Thailand
Last position: 2021-06-06 07:19:50 EDT (15d 23h36m ago)
2021-06-06 18:19:50 +07 local time at Bangkok, Thailand [?]
Altitude: 39 ft
Course:
Speed: 0 MPH
Last path: E27JBQ-10>APRSAI via WIDE1-1,qAR,E21EIC (good)
Positions stored: 18587
Other SSIDs: E27JBQ-1 E27JBQ-5 E27JBQ-9 E27JBQ-C
Stations near current position of E27JBQ-10 - show more
callsign distance last heard - EDT      callsign distance last heard - EDT
E27JBQ-920.1 yards 90°2021-06-16 10:48:14 E21IVJ-11.0 miles 121°2021-06-21 21:49:31
E25HDT1.0 miles 156°2021-05-31 21:14:21 E27ELR-D1.3 miles 98°2021-06-12 12:00:44
E22BBM2.2 miles 313°2021-05-30 03:15:09 HS1ZBT C2.6 miles 76°2021-06-21 02:00:07
HS1ZBT-C2.6 miles 76°2021-06-21 02:00:17 E23PBE C2.6 miles 76°2021-06-17 05:45:18
E23PBE-C2.6 miles 76°2021-06-17 05:45:28 HS1CZD C2.6 miles 76°2021-06-22 05:29:16
HS1CZD-C2.6 miles 76°2021-06-22 05:29:26 E25DAD C2.6 miles 76°2021-06-09 08:11:15
E25DAD-C2.6 miles 76°2021-06-09 08:11:25 E23THG C2.6 miles 76°2021-06-21 20:45:25
E23THG-C2.6 miles 76°2021-06-21 20:45:35 E24UXT C2.6 miles 76°2021-06-21 08:04:10
E24UXT-C2.6 miles 76°2021-06-21 08:04:20 HS1RVK C2.6 miles 76°2021-06-14 01:47:57
HS1RVK-C2.6 miles 76°2021-06-14 01:48:07 HS1DSX2.9 miles 280°2021-06-01 03:32:02
Stations which heard E27JBQ-10 directly on radio –
callsign pkts first heard - EDT last heard longest (tx => rx) longest at - EDT
HS2EKI 39 2021-06-05 04:33:51 2021-06-06 06:46:51 OK03ML > OK03MO 9.4 miles 345° 2021-06-06 06:28:35
E21DII 16 2021-06-06 06:49:19 2021-06-06 07:04:31 OK03KN > OK03IO 13.7 miles 272° 2021-06-06 06:49:19
HS2EOY-1 13 2021-06-05 05:52:26 2021-06-06 05:45:47 OK02NU > OK02PQ 19.7 miles 123° 2021-06-06 05:45:47
E21EIC 8 2021-06-05 03:55:13 2021-06-06 07:19:50 OK03GS > OK03FQ 5.3 miles 198° 2021-06-05 04:00:25
E21RBE-1 4 2021-06-05 05:11:42 2021-06-06 06:21:11 OK03MJ > OK03MH 5.2 miles 198° 2021-06-05 05:11:42
E27DRU-3 34 2021-06-05 06:01:04 2021-06-05 06:27:10 OK02OR > OK02OQ 4.3 miles 150° 2021-06-05 06:01:04
HS0QKD-2 32 2021-06-05 05:16:18 2021-06-06 06:15:35 OK03MH > OK03LB 17.5 miles 200° 2021-06-05 05:16:18
E27HCD-2 14 2021-06-05 05:27:52 2021-06-06 06:07:35 OK02MV > OK03LA 9.9 miles 316° 2021-06-06 05:49:45
E23GYM-1 17 2021-06-05 05:25:02 2021-06-06 06:08:31 OK02LX > OK03MC 7.4 miles 18° 2021-06-05 05:36:48
HS9IBR-1 4 2021-06-05 05:05:33 2021-06-05 05:25:27 OK03LE > OK03NK 19.9 miles 24° 2021-06-05 05:25:27
E21HSY-10 7 2021-06-05 04:06:37 2021-06-06 07:10:41 OK03IP > OK03HT 11.5 miles 334° 2021-06-06 07:01:05
HS5SQI-3 5 2021-06-05 05:06:17 2021-06-05 05:12:32 OK03ML > OK03MJ 5.7 miles 192° 2021-06-05 05:06:17
HS0BBD-1 4 2021-06-05 04:06:31 2021-06-05 04:08:47 OK03GS > OK03HS 1.6 miles 81° 2021-06-05 04:06:31
E24OWX-2 23 2021-06-05 05:34:38 2021-06-06 06:08:31 OK02NT > OK03NA 17.0 miles 345° 2021-06-05 05:56:08
E27IHO 8 2021-06-05 05:15:27 2021-06-06 06:19:31 OK03LG > OK03MJ 6.7 miles 7° 2021-06-06 06:16:51
E24MSQ-11 4 2021-06-06 06:41:06 2021-06-06 06:48:54 OK03KN > OK03LM 6.2 miles 125° 2021-06-06 06:48:54
E24OYI 2 2021-06-05 04:05:58 2021-06-06 07:17:47 OK03GS > OK03FT 10.6 miles 299° 2021-06-05 04:05:58
HS8PRF-2 13 2021-06-05 04:09:32 2021-06-06 06:58:10 OK03LN > OK03KU 19.8 miles 345° 2021-06-06 06:45:54
E27IHO-1 4 2021-06-05 05:12:57 2021-06-06 06:20:46 OK03LH > OK03MI 5.6 miles 6° 2021-06-06 06:17:36
E24CI-1 61 2021-06-05 04:23:46 2021-06-06 06:50:34 OK03JQ > OK03LE 36.0 miles 167° 2021-06-05 04:23:46
HS7AN-10 2 2021-06-06 07:15:49 2021-06-06 07:16:38 OK03GR > OK03BT 28.1 miles 279° 2021-06-06 07:15:49
E22RHP-1 2 2021-06-06 07:12:05 2021-06-06 07:14:59 OK03GR > OK03FT 11.4 miles 310° 2021-06-06 07:12:05
E27IHO-3 8 2021-06-05 05:15:29 2021-06-06 06:19:07 OK03LD > OK03LI 14.7 miles 359° 2021-06-06 06:08:33
HS3UAA-1 3 2021-06-05 05:15:52 2021-06-06 06:18:09 OK03MH > OK03LH 2.2 miles 233° 2021-06-05 05:15:52

Only position packets which were originated by the station are shown here. The range statistics show some extra long hops, because some digipeaters do not correctly add themselves to the digipeater path. Please check the raw packets.
About this site
This page shows real-time information collected from the Automatic Position Reporting System Internet network (APRS-IS). APRS is used by amateur (ham) radio operators to transmit real-time position information, weather data, telemetry and messages over the radio. A vehicle equipped with a GPS receiver, a VHF transmitter or HF transceiver and a small computer device called a tracker transmits it's location, speed and course in a small data packet, which is then received by a nearby iGate receiving site which forwards the packet on the Internet. Systems connected to the Internet can send information on the APRS-IS without a radio transmitter, or collect and display information transmitted anywhere in the world.
User guide · FAQ · Blog · Discussion group · Linking to aprs.fi · AIS sites · Service status · Database statistics · Advertising on aprs.fi · Technical details · API · Change log · Planned changes · Credits and thanks · Terms Of Service · iPhone/iPad APRS